Flight Track Log - Related Links

Times and Time Zones

All times are in EDT time to prevent confusion due to time zone crossing. See the N2002P flight status page for this flight to view local times or setup timezone preferences in your user account.

Time Position Orientation Groundspeed Altitude Reporting Facility
EDT Latitude Longitude Course Direction KTS MPH feet Rate Location/Type
Thu 11:44:01 AM 27.7667 -82.6167 180° South 103 119 300  Level Tampa TRACON
Thu 11:45:02 AM 27.7500 -82.6167 180° South 125 144 1,300 803 Climbing Tampa TRACON
Thu 11:46:08 AM 27.7500 -82.6500 270° West 140 161 2,000 200 Climbing Tampa TRACON
Thu 11:47:02 AM 27.7500 -82.7167 270° West 201 231 1,700 263 Descending Tampa TRACON
Thu 11:48:02 AM 27.7667 -82.7500 299° West 157 181 2,500 947 Climbing Tampa TRACON
Thu 11:48:56 AM 27.8000 -82.7833 319° Northwest 134 154 3,500 789 Climbing Tampa TRACON
Thu 11:49:56 AM 27.8333 -82.8000 336° Northwest 167 192 4,000 810 Climbing Tampa TRACON
Thu 11:51:02 AM 27.8833 -82.8167 344° North 149 171 5,200 1,000 Climbing Tampa TRACON
Thu 11:51:56 AM 27.9167 -82.8333 336° Northwest 152 175 6,000 900 Climbing Tampa TRACON
Thu 11:53:02 AM 27.9667 -82.8500 344° North 153 176 7,000 905 Climbing Tampa TRACON
Thu 11:54:02 AM 28.0000 -82.8667 336° Northwest 156 180 7,900 900 Climbing Tampa TRACON
Thu 11:55:02 AM 28.0500 -82.8833 344° North 159 183 8,800 810 Climbing Tampa TRACON
Thu 11:56:08 AM 28.0833 -82.9000 336° Northwest 161 185 9,600 422 Climbing Tampa TRACON
Thu 11:58:07 AM 28.1853 -82.9256 348° North 173 199 10,100 168 Climbing Jacksonville Center
Thu 11:59:07 AM 28.2417 -82.9444 344° North 187 215 10,100  Level Jacksonville Center
Thu 12:00:07 PM 28.2961 -82.9633 343° North 194 223 10,100  Level Jacksonville Center
Thu 12:01:07 PM 28.3481 -82.9822 342° North 194 223 10,100  Level Jacksonville Center
Thu 12:02:07 PM 28.4003 -82.9989 333° Northwest 194 223 10,100  Level Jacksonville Center
Thu 12:03:07 PM 28.4544 -83.0153 345° North 194 223 10,100  Level Jacksonville Center
Thu 12:04:07 PM 28.5025 -83.0486 329° Northwest 199 229 10,100  Level Jacksonville Center
Thu 12:05:07 PM 28.5483 -83.0817 328° Northwest 199 229 10,100  Level Jacksonville Center
Thu 12:06:07 PM 28.5983 -83.1147 330° Northwest 199 229 10,100  Level Jacksonville Center
Thu 12:07:07 PM 28.6483 -83.1458 331° Northwest 199 229 10,100  Level Jacksonville Center
Thu 12:08:07 PM 28.6983 -83.1767 332° Northwest 204 235 10,100  Level Jacksonville Center
Thu 12:09:07 PM 28.7464 -83.2100 329° Northwest 204 235 10,100  Level Jacksonville Center
Thu 12:10:07 PM 28.7775 -83.2644 303° West 204 235 10,100  Level Jacksonville Center
Thu 12:11:07 PM 28.8086 -83.3192 303° West 204 235 10,100  Level Jacksonville Center
Thu 12:12:07 PM 28.8397 -83.3761 302° West 204 235 10,100  Level Jacksonville Center
Thu 12:13:07 PM 28.8689 -83.4261 304° West 209 241 10,100  Level Jacksonville Center
Thu 12:14:07 PM 28.9019 -83.4831 304° West 209 241 10,100  Level Jacksonville Center
Thu 12:15:07 PM 28.9350 -83.5356 306° West 209 241 10,100  Level Jacksonville Center
Thu 12:16:07 PM 28.9639 -83.5928 300° West 204 235 10,100  Level Jacksonville Center
Thu 12:17:07 PM 28.9950 -83.6475 303° West 204 235 10,100  Level Jacksonville Center
Thu 12:18:07 PM 29.0261 -83.7000 304° West 204 235 10,100  Level Jacksonville Center
Thu 12:19:07 PM 29.0550 -83.7547 301° West 204 235 10,100  Level Jacksonville Center
Thu 12:20:07 PM 29.0878 -83.8097 304° West 204 235 10,100  Level Jacksonville Center
Thu 12:21:07 PM 29.1167 -83.8647 301° West 204 235 10,100  Level Jacksonville Center
Thu 12:22:07 PM 29.1497 -83.9197 305° West 204 235 10,100  Level Jacksonville Center
Thu 12:23:07 PM 29.1806 -83.9747 303° West 204 235 10,100  Level Jacksonville Center
Thu 12:24:07 PM 29.2114 -84.0297 303° West 204 235 10,100  Level Jacksonville Center
Thu 12:25:07 PM 29.2464 -84.0872 305° West 210 242 10,100  Level Jacksonville Center
Thu 12:26:07 PM 29.2772 -84.1447 302° West 210 242 10,100  Level Jacksonville Center
Thu 12:27:07 PM 29.3078 -84.2000 302° West 205 236 10,100  Level Jacksonville Center
Thu 12:28:07 PM 29.3406 -84.2553 304° West 205 236 10,100  Level Jacksonville Center
Thu 12:29:07 PM 29.3672 -84.3056 301° West 205 236 10,100  Level Jacksonville Center
Thu 12:30:07 PM 29.3981 -84.3633 301° West 205 236 10,100  Level Jacksonville Center
Thu 12:31:07 PM 29.4286 -84.4161 304° West 205 236 10,100  Level Jacksonville Center
Thu 12:32:07 PM 29.4592 -84.4692 303° West 205 236 10,100  Level Jacksonville Center
Thu 12:33:07 PM 29.4919 -84.5342 300° West 205 236 10,100  Level Jacksonville Center
Thu 12:34:07 PM 29.5206 -84.5847 303° West 205 236 10,100  Level Jacksonville Center
Thu 12:35:07 PM 29.5511 -84.6378 304° West 205 236 10,100  Level Jacksonville Center
Thu 12:36:07 PM 29.5817 -84.6933 302° West 205 236 10,100  Level Jacksonville Center
Thu 12:37:07 PM 29.6122 -84.7464 304° West 205 236 10,100  Level Jacksonville Center
Thu 12:38:07 PM 29.6406 -84.8019 300° West 205 236 10,100  Level Jacksonville Center
Thu 12:39:07 PM 29.6711 -84.8550 304° West 205 236 10,100  Level Jacksonville Center
Thu 12:40:07 PM 29.7017 -84.9083 303° West 205 236 10,100  Level Jacksonville Center
Thu 12:41:07 PM 29.7319 -84.9639 302° West 205 236 10,100  Level Jacksonville Center
Thu 12:42:07 PM 29.7603 -85.0194 300° West 205 236 10,100 Level Jacksonville Center
Thu 12:44:00 PM 29.8089 -85.1072 303° West  Level FlightAware Approximate
Thu 12:51:00 PM 29.9892 -85.4340 303° West  Level FlightAware Approximate
Thu 12:52:00 PM 30.0149 -85.4807 302° West  Level FlightAware Approximate
Thu 12:53:00 PM 30.0406 -85.5275 302° West  Level FlightAware Approximate
Thu 12:54:00 PM 30.0662 -85.5744 302° West  Level FlightAware Approximate
Thu 12:55:00 PM 30.0918 -85.6212 302° West  Level FlightAware Approximate
Thu 12:56:00 PM 30.1168 -85.6686 274° West  Level FlightAware Approximate
Thu 12:57:00 PM 30.1205 -85.7239 274° West  Level FlightAware Approximate
Thu 12:58:00 PM 30.1242 -85.7792 274° West  Level FlightAware Approximate
Thu 12:59:00 PM 30.1279 -85.8345 274° West  Level FlightAware Approximate
Thu 01:00:00 PM 30.1316 -85.8898 274° West  Level FlightAware Approximate
Thu 01:01:00 PM 30.1365 -85.9450 277° West  Level FlightAware Approximate
Thu 01:02:00 PM 30.1427 -86.0000 277° West  Level FlightAware Approximate
Thu 01:03:00 PM 30.1488 -86.0550 277° West  Level FlightAware Approximate
Thu 01:04:00 PM 30.1550 -86.1100 277° West  Level FlightAware Approximate
Thu 01:05:00 PM 30.1611 -86.1650 277° West  Level FlightAware Approximate
Thu 01:06:00 PM 30.1672 -86.2201 277° West  Level FlightAware Approximate
Thu 01:07:00 PM 30.1732 -86.2751 277° West  Level FlightAware Approximate
Thu 01:08:00 PM 30.1793 -86.3302 277° West  Level FlightAware Approximate
Thu 01:09:00 PM 30.1853 -86.3852 277° West  Level FlightAware Approximate
Thu 01:10:00 PM 30.1913 -86.4403 277° West  Level FlightAware Approximate
Thu 01:10:23 PM 30.3147 -86.6725 277° West 206 237 10,200  Level Jacksonville Center
Thu 01:10:59 PM 30.3181 -86.7089 276° West 205 236 10,200  Level Jacksonville Center
Thu 01:11:00 PM 30.1972 -86.4954 277° West  Level FlightAware Approximate
Thu 01:11:54 PM 30.3286 -86.7717 281° West 204 235 10,200  Level Jacksonville Center
Thu 01:12:00 PM 30.2032 -86.5504 277° West  Level FlightAware Approximate
Thu 01:12:55 PM 30.3411 -86.8350 283° West 202 232 10,100  Level Jacksonville Center
Thu 01:13:00 PM 30.2091 -86.6055 277° West  Level FlightAware Approximate
Thu 01:13:55 PM 30.3453 -86.9025 274° West 201 231 10,100  Level Jacksonville Center
Thu 01:14:00 PM 30.2150 -86.6606 277° West  Level FlightAware Approximate
Thu 01:15:00 PM 30.2209 -86.7157 277° West  Level FlightAware Approximate
Thu 01:15:02 PM 30.3494 -86.9747 274° West 204 235 10,100  Level Jacksonville Center
Thu 01:16:03 PM 30.3514 -87.0397 272° West 207 238 10,100  Level Jacksonville Center
Thu 01:17:04 PM 30.3553 -87.1097 274° West 206 237 10,100  Level Jacksonville Center
Thu 01:18:05 PM 30.3575 -87.1725 272° West 208 239 10,100  Level Jacksonville Center
Thu 01:18:59 PM 30.3636 -87.2353 276° West 207 238 10,100  Level Jacksonville Center
Thu 01:20:06 PM 30.3656 -87.3053 272° West 205 236 10,100  Level Jacksonville Center
Thu 01:21:07 PM 30.3733 -87.3753 277° West 203 234 10,100  Level Jacksonville Center
Thu 01:22:08 PM 30.3775 -87.4406 274° West 202 232 10,100  Level Jacksonville Center
Thu 01:23:03 PM 30.3817 -87.4961 275° West 200 230 10,100 20 Level Jacksonville Center
Thu 01:25:00 PM 30.3783 -87.6051 268° West  Level FlightAware Approximate
Thu 01:27:03 PM 30.3975 -87.7467 272° West 203 234 10,200  Level Houston Center
Thu 01:28:05 PM 30.4019 -87.8122 275° West 204 235 10,200  Level Houston Center
Thu 01:29:07 PM 30.4064 -87.8783 274° West 205 236 10,200  Level Houston Center
Thu 01:30:09 PM 30.4092 -87.9442 273° West 205 236 10,200  Level Houston Center
Thu 01:31:11 PM 30.4128 -88.0228 273° West 204 235 10,200  Level Houston Center
Thu 01:32:00 PM 30.3675 -87.9972 272° West  Level FlightAware Approximate
Thu 01:32:13 PM 30.4167 -88.0889 274° West 205 236 10,200  Level Houston Center
Thu 01:33:15 PM 30.4206 -88.1547 274° West 205 236 10,200  Level Houston Center
Thu 01:34:17 PM 30.4228 -88.2203 272° West 204 235 10,200  Level Houston Center
Thu 01:35:19 PM 30.4261 -88.2856 273° West 203 234 10,200  Level Houston Center
Thu 01:36:21 PM 30.4297 -88.3506 274° West 203 234 10,200  Level Houston Center
Thu 01:37:23 PM 30.4333 -88.4150 274° West 201 231 10,200  Level Houston Center
Thu 01:38:25 PM 30.4372 -88.4931 273° West 202 232 10,200  Level Houston Center
Thu 01:39:27 PM 30.4394 -88.5581 272° West 202 232 10,200  Level Houston Center
Thu 01:40:29 PM 30.4428 -88.6231 273° West 202 232 10,200  Level Houston Center
Thu 01:41:31 PM 30.4467 -88.6892 274° West 204 235 10,200  Level Houston Center
Thu 01:42:33 PM 30.4486 -88.7539 272° West 203 234 10,200  Level Houston Center
Thu 01:43:35 PM 30.4522 -88.8175 274° West 200 230 10,200  Level Houston Center
Thu 01:44:36 PM 30.4556 -88.8831 273° West 202 232 10,200  Level Houston Center
Thu 01:45:38 PM 30.4600 -88.9583 274° West 203 234 10,200  Level Houston Center
Thu 01:46:40 PM 30.4633 -89.0233 273° West 202 232 10,200  Level Houston Center
Thu 01:47:42 PM 30.4656 -89.0883 272° West 203 234 10,200  Level Houston Center
Thu 01:48:44 PM 30.4692 -89.1528 274° West 202 232 10,200  Level Houston Center
Thu 01:49:46 PM 30.4725 -89.2306 273° West 202 232 10,200  Level Houston Center
Thu 01:50:48 PM 30.4767 -89.2947 274° West 202 232 10,200  Level Houston Center
Thu 01:51:50 PM 30.4789 -89.3614 272° West 205 236 10,200  Level Houston Center
Thu 01:52:52 PM 30.4822 -89.4250 273° West 202 232 10,200 -97 Level Houston Center
Thu 01:53:54 PM 30.4842 -89.4881 272° West 198 228 10,000 -339 Descending Houston Center
Thu 01:54:56 PM 30.4878 -89.5539 274° West 203 234 9,500 -632 Descending Houston Center
Thu 01:56:07 PM 30.4831 -89.6519 267° West 222 255 8,600 -581 Descending Houston Center
Thu 01:57:00 PM 30.4819 -89.7047 269° West 213 245 8,300 -522 Descending Houston Center
Thu 01:58:02 PM 30.4858 -89.7717 274° West 211 243 7,600 -774 Descending Houston Center
Thu 01:59:04 PM 30.4894 -89.8411 273° West 217 250 6,700 -871 Descending Houston Center
Thu 02:00:06 PM 30.4936 -89.9075 274° West 218 251 5,800 -823 Descending Houston Center
Thu 02:01:08 PM 30.5094 -89.9853 283° West 209 241 5,000 -818 Descending Houston Center
Thu 02:02:18 PM 30.5072 -90.0636 268° West 202 232 4,000 -726 Descending Houston Center
Thu 02:03:12 PM 30.5100 -90.1144 274° West 203 234 3,500 -362 Descending Houston Center
Thu 02:04:14 PM 30.5128 -90.1775 273° West 203 234 3,300 -194 Descending Houston Center

Login

Don't have an account? Register now (free) for customized features, flight alerts, and more!